CheckWX is a tool to help pilots better visualize weather data.  It is not intended as a substitute for an official pre-flight weather briefing.

13:06:57 UTC

KMBS TAF
Mbs International Airport
Saginaw, Michigan, USA
KMBS 201120Z 2012/2112 27014G24KT P6SM OVC022 FM201400 27016G26KT P6SM OVC018 FM201900 30014G22KT P6SM BKN028 FM210000 32006KT P6SM SKC

May-20@
12:00 UTC

May-20 @ 12:00 UTC

May-20@
14:00 UTC

May-20 @ 14:00 UTC

KMBS 201120Z 2012/2112 27014G24KT P6SM OVC022
Wind
  • 270° at 14 KTS
  • {Gusting to 24 KTS
Cloud Levels
  • Overcast at 2,200' AGL

May-20@
14:00 UTC

May-20 @ 14:00 UTC

May-20@
19:00 UTC

May-20 @ 19:00 UTC

FM201400 27016G26KT P6SM OVC018

From

From Standard forecast or significant change

Wind
  • 270° at 16 KTS
  • {Gusting to 26 KTS
Cloud Levels
  • Overcast at 1,800' AGL

May-20@
19:00 UTC

May-20 @ 19:00 UTC

May-21@
00:00 UTC

May-21 @ 00:00 UTC

FM201900 30014G22KT P6SM BKN028

From

From Standard forecast or significant change

Wind
  • 300° at 14 KTS
  • {Gusting to 22 KTS
Cloud Levels
  • Broken at 2,800' AGL

May-21@
00:00 UTC

May-21 @ 00:00 UTC

May-21@
12:00 UTC

May-21 @ 12:00 UTC

FM210000 32006KT P6SM SKC

From

From Standard forecast or significant change

Wind
  • 320° at 6 KTS
Cloud Levels
  • Clear skies